Time;durP1;ratioP1;P1;durP2;ratioP2;P2;SDS_P1;SDS_P2;PMS_P1;PMS_P2;Temp;Humidity;BMP_temperature;BMP_pressure;BME280_temperature;BME280_humidity;BME280_pressure;Samples;Min_cycle;Max_cycle;Signal;HPM_P1;HPM_P2
2021/09/09 00:00:22;;;;;;;13.18;10.18;;;17.60;99.90;;;;;;5054443;28;20025;-78
2021/09/09 00:02:48;;;;;;;10.90;9.88;;;17.60;99.90;;;;;;5057670;28;20505;-78
2021/09/09 00:05:14;;;;;;;13.57;9.43;;;17.60;99.90;;;;;;5054827;28;20017;-78
2021/09/09 00:07:40;;;;;;;13.52;9.80;;;17.60;99.90;;;;;;5057991;28;20024;-76
2021/09/09 00:10:06;;;;;;;11.25;10.20;;;17.60;99.90;;;;;;5063611;28;20013;-76
2021/09/09 00:12:32;;;;;;;11.00;9.80;;;17.60;99.90;;;;;;5071893;28;20024;-77
2021/09/09 00:14:57;;;;;;;11.98;10.23;;;17.60;99.90;;;;;;5070670;28;20021;-76
2021/09/09 00:17:23;;;;;;;14.57;10.48;;;17.60;99.90;;;;;;5071838;28;20020;-77
2021/09/09 00:19:49;;;;;;;13.10;10.10;;;17.60;99.90;;;;;;5071505;28;20032;-76
2021/09/09 00:22:14;;;;;;;11.18;9.57;;;17.50;99.90;;;;;;5070564;28;20310;-76
2021/09/09 00:24:40;;;;;;;12.27;10.73;;;17.50;99.90;;;;;;5071802;28;20074;-76
2021/09/09 00:27:05;;;;;;;13.00;11.10;;;17.50;99.90;;;;;;5070393;28;20107;-76
2021/09/09 00:29:31;;;;;;;12.65;10.38;;;17.50;99.90;;;;;;5070351;28;20435;-77
2021/09/09 00:31:57;;;;;;;11.75;10.57;;;17.40;99.90;;;;;;5070862;28;20108;-77
2021/09/09 00:34:22;;;;;;;12.05;9.70;;;17.30;99.90;;;;;;5074659;28;20024;-79
2021/09/09 00:36:48;;;;;;;11.88;10.60;;;17.30;99.90;;;;;;5075599;28;20373;-76
2021/09/09 00:39:13;;;;;;;16.77;11.55;;;17.30;99.90;;;;;;5074189;28;20063;-76
2021/09/09 00:41:39;;;;;;;13.65;10.43;;;17.30;99.90;;;;;;5074457;28;20028;-75
2021/09/09 00:44:05;;;;;;;12.15;10.40;;;17.30;99.90;;;;;;5075609;28;20017;-76
2021/09/09 00:46:33;;;;;;;13.00;10.65;;;17.30;99.90;;;;;;5056485;28;20029;-77
2021/09/09 00:48:59;;;;;;;11.80;10.48;;;17.20;99.90;;;;;;5058086;28;20033;-75
2021/09/09 00:51:25;;;;;;;14.98;11.70;;;17.30;99.90;;;;;;5053986;28;20036;-77
2021/09/09 00:53:50;;;;;;;12.38;10.48;;;17.30;99.90;;;;;;5056087;28;20098;-75
2021/09/09 00:56:18;;;;;;;12.40;11.18;;;17.20;99.90;;;;;;5054674;28;20021;-76
2021/09/09 00:58:45;;;;;;;11.45;10.20;;;17.20;99.90;;;;;;5056021;28;20070;-76
2021/09/09 01:01:11;;;;;;;13.80;10.68;;;17.10;99.90;;;;;;5061398;28;20033;-77
2021/09/09 01:03:37;;;;;;;15.18;11.40;;;17.00;99.90;;;;;;5067408;28;20067;-76
2021/09/09 01:06:02;;;;;;;12.55;11.35;;;17.10;99.90;;;;;;5054424;28;20021;-77
2021/09/09 01:08:29;;;;;;;12.52;10.52;;;17.00;99.90;;;;;;5056421;28;20043;-76
2021/09/09 01:10:54;;;;;;;13.15;11.73;;;16.90;99.90;;;;;;5068793;28;20091;-75
2021/09/09 01:13:20;;;;;;;12.32;11.13;;;16.90;99.90;;;;;;5075200;28;20040;-77
2021/09/09 01:15:46;;;;;;;12.98;11.75;;;16.80;99.90;;;;;;5075381;28;20043;-77
2021/09/09 01:18:14;;;;;;;15.63;11.68;;;16.80;99.90;;;;;;5075027;28;20105;-76
2021/09/09 01:20:40;;;;;;;14.05;11.18;;;16.80;99.90;;;;;;5074555;28;20103;-76
2021/09/09 01:23:06;;;;;;;13.13;10.95;;;16.80;99.90;;;;;;5073842;28;20024;-77
2021/09/09 01:25:32;;;;;;;13.70;10.75;;;16.80;99.90;;;;;;5075505;28;20059;-76
2021/09/09 01:27:57;;;;;;;13.18;11.25;;;16.80;99.90;;;;;;5073231;28;20032;-76
2021/09/09 01:30:23;;;;;;;12.30;11.10;;;16.80;99.90;;;;;;5074519;28;20029;-76
2021/09/09 01:32:49;;;;;;;16.60;11.98;;;16.80;99.90;;;;;;5073220;28;20101;-76
2021/09/09 01:35:14;;;;;;;14.88;12.10;;;16.90;99.90;;;;;;5074615;28;20021;-75
2021/09/09 01:37:40;;;;;;;12.68;11.07;;;16.90;99.90;;;;;;5074563;28;20020;-76
2021/09/09 01:40:06;;;;;;;15.63;11.82;;;16.90;99.90;;;;;;5072898;28;20036;-76
2021/09/09 01:42:32;;;;;;;14.95;10.95;;;17.00;99.90;;;;;;5074524;28;20028;-77
2021/09/09 01:44:57;;;;;;;12.98;11.63;;;17.00;99.90;;;;;;5064216;28;20049;-75
2021/09/09 01:47:23;;;;;;;24.92;11.35;;;17.00;99.90;;;;;;5054292;28;20021;-75
2021/09/09 01:49:49;;;;;;;13.70;11.77;;;17.00;99.90;;;;;;5052850;28;20032;-76
2021/09/09 01:52:14;;;;;;;12.40;11.13;;;17.00;99.90;;;;;;5053168;28;20025;-76
2021/09/09 01:54:40;;;;;;;13.95;12.38;;;17.00;99.90;;;;;;5053103;28;20103;-77
2021/09/09 01:57:05;;;;;;;11.90;10.70;;;17.00;99.90;;;;;;5054140;28;20029;-75
2021/09/09 01:59:31;;;;;;;13.23;11.07;;;16.90;99.90;;;;;;5052596;28;20036;-76
2021/09/09 02:01:57;;;;;;;12.70;11.48;;;16.90;99.90;;;;;;5053674;28;20045;-76
2021/09/09 02:04:23;;;;;;;12.65;11.43;;;16.90;99.90;;;;;;5054294;28;20017;-77
2021/09/09 02:06:48;;;;;;;12.52;11.23;;;16.80;99.90;;;;;;5052795;28;20025;-78
2021/09/09 02:09:14;;;;;;;11.77;10.70;;;16.70;99.90;;;;;;5052571;28;20491;-76
2021/09/09 02:11:39;;;;;;;12.65;11.20;;;16.80;99.90;;;;;;5053832;28;20476;-76
2021/09/09 02:14:05;;;;;;;14.65;10.68;;;16.70;99.90;;;;;;5052688;28;20025;-77
2021/09/09 02:16:30;;;;;;;12.30;11.07;;;16.70;99.90;;;;;;5052415;28;20396;-77
2021/09/09 02:18:57;;;;;;;12.48;10.57;;;16.70;99.90;;;;;;5053750;28;20567;-77
2021/09/09 02:21:23;;;;;;;13.02;11.30;;;16.80;99.90;;;;;;5053657;28;20025;-76
2021/09/09 02:23:48;;;;;;;13.23;11.82;;;16.70;99.90;;;;;;5053749;28;20464;-76
2021/09/09 02:26:14;;;;;;;12.38;11.18;;;16.70;99.90;;;;;;5053758;28;20118;-76
2021/09/09 02:28:40;;;;;;;14.35;11.85;;;16.60;99.90;;;;;;5052708;28;20476;-75
2021/09/09 02:31:06;;;;;;;12.32;11.05;;;16.50;99.90;;;;;;5053604;28;20028;-76
2021/09/09 02:33:31;;;;;;;13.55;12.13;;;16.60;99.90;;;;;;5053531;28;20025;-76
2021/09/09 02:35:57;;;;;;;12.93;10.82;;;16.50;99.90;;;;;;5053692;28;20091;-75
2021/09/09 02:38:23;;;;;;;12.95;10.55;;;16.60;99.90;;;;;;5053398;28;20043;-75
2021/09/09 02:40:48;;;;;;;14.60;11.95;;;16.60;99.90;;;;;;5053121;28;20497;-76
2021/09/09 02:43:14;;;;;;;12.60;11.48;;;16.60;99.90;;;;;;5053869;28;20032;-76
2021/09/09 02:45:39;;;;;;;14.43;11.77;;;16.70;99.90;;;;;;5057703;28;20027;-75
2021/09/09 02:48:05;;;;;;;12.63;10.48;;;16.60;99.90;;;;;;5064304;28;20049;-74
2021/09/09 02:50:31;;;;;;;13.05;10.52;;;16.60;99.90;;;;;;5055847;28;20017;-76
2021/09/09 02:52:57;;;;;;;18.58;11.75;;;16.50;99.90;;;;;;5059154;28;20032;-75
2021/09/09 02:55:22;;;;;;;15.23;11.60;;;16.50;99.90;;;;;;5064600;28;20021;-76
2021/09/09 02:57:48;;;;;;;15.13;10.93;;;16.40;99.90;;;;;;5073513;28;20027;-77
2021/09/09 03:00:14;;;;;;;11.52;10.30;;;16.40;99.90;;;;;;5073088;28;20028;-76
2021/09/09 03:02:40;;;;;;;11.73;10.63;;;16.40;99.90;;;;;;5073783;28;20024;-76
2021/09/09 03:05:07;;;;;;;14.40;11.10;;;16.30;99.90;;;;;;5068611;28;20085;-76
2021/09/09 03:07:33;;;;;;;15.40;12.50;;;16.30;99.90;;;;;;5069607;28;20016;-76
2021/09/09 03:09:58;;;;;;;16.48;10.75;;;16.30;99.90;;;;;;5078020;28;20025;-74
2021/09/09 03:12:24;;;;;;;13.38;11.02;;;16.30;99.90;;;;;;5064247;28;20029;-74
2021/09/09 03:14:49;;;;;;;13.00;11.38;;;16.30;99.90;;;;;;5067695;28;20059;-75
2021/09/09 03:17:15;;;;;;;14.50;13.10;;;16.30;99.90;;;;;;5068855;28;20029;-75
2021/09/09 03:19:40;;;;;;;15.20;10.77;;;16.30;99.90;;;;;;5067480;28;20037;-76
2021/09/09 03:22:06;;;;;;;18.92;12.88;;;16.30;99.90;;;;;;5067535;28;20020;-75
2021/09/09 03:24:32;;;;;;;12.40;10.73;;;16.30;99.90;;;;;;5068063;28;20033;-75
2021/09/09 03:26:58;;;;;;;13.02;10.43;;;16.30;99.90;;;;;;5064210;28;20025;-75
2021/09/09 03:29:23;;;;;;;13.13;11.23;;;16.20;99.90;;;;;;5075474;28;20047;-74
2021/09/09 03:31:49;;;;;;;11.88;10.77;;;16.20;99.90;;;;;;5072687;28;20064;-75
2021/09/09 03:34:14;;;;;;;12.52;11.13;;;16.20;99.90;;;;;;5074524;28;20021;-76
2021/09/09 03:36:40;;;;;;;11.43;10.35;;;16.20;99.90;;;;;;5068496;28;20096;-75
2021/09/09 03:39:06;;;;;;;12.25;11.05;;;16.10;99.90;;;;;;5052004;28;20518;-75
2021/09/09 03:41:31;;;;;;;12.38;10.57;;;16.10;99.90;;;;;;5051093;28;20025;-76
2021/09/09 03:43:57;;;;;;;11.90;10.68;;;16.10;99.90;;;;;;5052656;28;20029;-76
2021/09/09 03:46:22;;;;;;;16.40;10.80;;;16.10;99.90;;;;;;5051906;28;20033;-75
2021/09/09 03:48:48;;;;;;;12.27;11.02;;;16.10;99.90;;;;;;5052463;28;20044;-75
2021/09/09 03:51:13;;;;;;;12.25;10.95;;;16.10;99.90;;;;;;5052260;28;20091;-76
2021/09/09 03:53:39;;;;;;;12.88;10.80;;;16.00;99.90;;;;;;5058465;28;20104;-76
2021/09/09 03:56:05;;;;;;;12.77;11.50;;;16.00;99.90;;;;;;5067525;28;20562;-75
2021/09/09 03:58:31;;;;;;;13.77;11.32;;;16.10;99.90;;;;;;5070835;28;20024;-77
2021/09/09 04:00:56;;;;;;;12.65;10.25;;;16.10;99.90;;;;;;5072073;28;20111;-77
2021/09/09 04:03:22;;;;;;;13.65;11.32;;;16.10;99.90;;;;;;5070925;28;20032;-76
2021/09/09 04:05:47;;;;;;;13.05;10.63;;;16.20;99.90;;;;;;5070770;28;20025;-76
2021/09/09 04:08:13;;;;;;;12.23;11.10;;;16.20;99.90;;;;;;5071425;28;20021;-76
2021/09/09 04:10:39;;;;;;;12.00;10.77;;;16.20;99.90;;;;;;5070554;28;20024;-76
2021/09/09 04:13:04;;;;;;;11.90;10.70;;;16.20;99.90;;;;;;5070971;28;20029;-76
2021/09/09 04:15:30;;;;;;;13.35;10.30;;;16.30;99.90;;;;;;5072152;28;20029;-76
2021/09/09 04:17:56;;;;;;;11.23;10.15;;;16.30;99.90;;;;;;5071007;28;20395;-76
2021/09/09 04:20:21;;;;;;;11.88;10.80;;;16.30;99.90;;;;;;5072003;28;20043;-76
2021/09/09 04:22:47;;;;;;;11.25;9.93;;;16.40;99.90;;;;;;5071895;28;20036;-76
2021/09/09 04:25:12;;;;;;;10.90;9.77;;;16.40;99.90;;;;;;5070804;28;20023;-76
2021/09/09 04:27:38;;;;;;;12.48;10.68;;;16.50;99.90;;;;;;5070613;28;20037;-76
2021/09/09 04:30:04;;;;;;;13.15;10.43;;;16.50;99.90;;;;;;5072495;28;20553;-75
2021/09/09 04:32:30;;;;;;;14.60;10.60;;;16.50;99.90;;;;;;5071868;28;20491;-76
2021/09/09 04:34:55;;;;;;;13.10;11.00;;;16.50;99.90;;;;;;5072267;28;20070;-75
2021/09/09 04:37:21;;;;;;;10.45;9.35;;;16.50;99.90;;;;;;5070424;28;20086;-75
2021/09/09 04:39:46;;;;;;;11.85;9.65;;;16.40;99.90;;;;;;5070716;28;20170;-77
2021/09/09 04:42:12;;;;;;;12.27;10.50;;;16.40;99.90;;;;;;5071888;28;20032;-75
2021/09/09 04:44:38;;;;;;;12.80;10.85;;;16.40;99.90;;;;;;5065833;28;20025;-76
2021/09/09 04:47:04;;;;;;;11.88;9.82;;;16.40;99.90;;;;;;5050476;28;20063;-75
2021/09/09 04:49:29;;;;;;;13.98;10.07;;;16.30;99.90;;;;;;5049897;28;20028;-74
2021/09/09 04:51:55;;;;;;;15.43;9.90;;;16.30;99.90;;;;;;5050449;28;20029;-75
2021/09/09 04:54:21;;;;;;;12.85;9.90;;;16.30;99.90;;;;;;5060183;28;20142;-75
2021/09/09 04:56:46;;;;;;;10.20;9.05;;;16.30;99.90;;;;;;5071688;28;20544;-76
2021/09/09 04:59:12;;;;;;;10.70;9.77;;;16.40;99.90;;;;;;5071200;28;20036;-75
2021/09/09 05:01:37;;;;;;;13.60;10.43;;;16.50;99.90;;;;;;5071776;28;20020;-76
2021/09/09 05:04:03;;;;;;;11.65;10.32;;;16.40;99.90;;;;;;5073230;28;20024;-75
2021/09/09 05:06:29;;;;;;;10.00;9.05;;;16.40;99.90;;;;;;5087651;28;20029;-75
2021/09/09 05:08:55;;;;;;;12.07;9.80;;;16.50;99.90;;;;;;5086011;28;20029;-75
2021/09/09 05:11:20;;;;;;;17.50;10.52;;;16.60;99.90;;;;;;5087692;28;20040;-75
2021/09/09 05:13:46;;;;;;;13.30;10.00;;;16.70;99.90;;;;;;5087422;28;20040;-74
2021/09/09 05:16:11;;;;;;;10.63;9.57;;;16.80;99.90;;;;;;5087457;28;20028;-75
2021/09/09 05:18:37;;;;;;;10.05;9.05;;;16.90;99.90;;;;;;5087155;28;20033;-76
2021/09/09 05:21:03;;;;;;;9.73;8.73;;;17.20;99.90;;;;;;5091393;28;20054;-75
2021/09/09 05:23:28;;;;;;;14.05;9.10;;;17.30;99.90;;;;;;5090974;28;20016;-76
2021/09/09 05:25:54;;;;;;;10.18;9.00;;;17.50;99.90;;;;;;5089047;28;20080;-75
2021/09/09 05:28:19;;;;;;;13.65;9.07;;;17.50;99.90;;;;;;5090518;28;20143;-75
2021/09/09 05:30:45;;;;;;;10.93;9.85;;;17.50;99.90;;;;;;5088597;28;20043;-75
2021/09/09 05:33:12;;;;;;;11.40;9.10;;;17.30;99.90;;;;;;5078792;28;20016;-76
2021/09/09 05:35:38;;;;;;;11.60;9.05;;;17.50;99.90;;;;;;5074637;28;20473;-77
2021/09/09 05:38:03;;;;;;;12.90;9.23;;;17.80;99.90;;;;;;5074747;28;20032;-76
2021/09/09 05:40:29;;;;;;;11.68;9.25;;;18.10;99.90;;;;;;5074338;28;20032;-75
2021/09/09 05:42:54;;;;;;;10.45;9.45;;;18.40;99.90;;;;;;5074608;28;20487;-75
2021/09/09 05:45:20;;;;;;;13.10;9.27;;;18.60;99.90;;;;;;5063656;28;20417;-76
2021/09/09 05:47:45;;;;;;;10.48;9.30;;;18.50;99.90;;;;;;5054536;28;20056;-76
2021/09/09 05:50:11;;;;;;;11.70;9.15;;;18.70;99.90;;;;;;5054080;28;20037;-76
2021/09/09 05:52:37;;;;;;;10.65;8.75;;;19.00;99.90;;;;;;5056739;28;20387;-76
2021/09/09 05:55:03;;;;;;;10.02;8.40;;;18.80;99.90;;;;;;5065902;28;20027;-76
2021/09/09 05:57:29;;;;;;;9.55;8.65;;;18.60;99.90;;;;;;5075546;28;20029;-75
2021/09/09 05:59:54;;;;;;;10.30;9.40;;;18.70;99.90;;;;;;5074408;28;20137;-76
2021/09/09 06:02:23;;;;;;;10.35;7.80;;;18.50;99.90;;;;;;5074633;28;20028;-76
2021/09/09 06:04:49;;;;;;;13.35;8.90;;;18.60;99.90;;;;;;5061472;28;20546;-75
2021/09/09 06:07:15;;;;;;;10.80;8.75;;;18.80;99.90;;;;;;5055432;28;20025;-76
2021/09/09 06:09:41;;;;;;;9.77;8.88;;;18.80;99.90;;;;;;5054045;28;20056;-76
2021/09/09 06:12:07;;;;;;;10.40;8.30;;;19.00;99.90;;;;;;5054790;28;20099;-76
2021/09/09 06:14:33;;;;;;;11.50;7.95;;;19.00;99.90;;;;;;5054638;28;20032;-77
2021/09/09 06:16:59;;;;;;;12.82;8.32;;;19.20;99.90;;;;;;5054440;28;20388;-76
2021/09/09 06:19:25;;;;;;;9.65;8.65;;;19.10;99.90;;;;;;5056907;28;20025;-75
2021/09/09 06:21:51;;;;;;;9.00;7.72;;;19.40;99.90;;;;;;5055903;28;20392;-75
2021/09/09 06:24:17;;;;;;;11.27;9.05;;;19.50;99.90;;;;;;5054354;28;20461;-76
2021/09/09 06:26:42;;;;;;;10.23;8.73;;;19.80;99.90;;;;;;5053441;28;20063;-75
2021/09/09 06:29:08;;;;;;;9.80;8.43;;;20.00;99.90;;;;;;5053677;28;20082;-75
2021/09/09 06:31:33;;;;;;;12.95;7.90;;;19.90;99.90;;;;;;5051941;28;20391;-75
2021/09/09 06:33:59;;;;;;;9.15;8.05;;;20.00;99.90;;;;;;5055266;28;20096;-76
2021/09/09 06:36:25;;;;;;;12.52;7.78;;;20.20;99.90;;;;;;5055788;28;20104;-77
2021/09/09 06:38:50;;;;;;;11.68;8.18;;;20.40;99.90;;;;;;5056515;28;20025;-77
2021/09/09 06:41:16;;;;;;;11.20;8.25;;;20.40;99.90;;;;;;5057375;28;20086;-75
2021/09/09 06:43:41;;;;;;;12.32;9.10;;;20.60;99.90;;;;;;5053983;28;20029;-76
2021/09/09 06:46:07;;;;;;;11.35;8.75;;;20.50;99.90;;;;;;5056499;28;20025;-76
2021/09/09 06:48:33;;;;;;;10.05;8.20;;;20.20;99.90;;;;;;5051961;28;20021;-75
2021/09/09 06:51:01;;;;;;;9.10;8.15;;;20.30;99.90;;;;;;5051764;28;20090;-75
2021/09/09 06:53:27;;;;;;;11.98;8.70;;;20.00;99.90;;;;;;5059968;28;20021;-75
2021/09/09 06:55:52;;;;;;;9.80;8.73;;;20.10;99.90;;;;;;5065384;28;20032;-76
2021/09/09 06:58:18;;;;;;;12.13;8.25;;;20.10;99.90;;;;;;5071709;28;20028;-76
2021/09/09 07:00:43;;;;;;;11.10;8.38;;;20.30;99.90;;;;;;5065808;28;20459;-74
2021/09/09 07:03:09;;;;;;;12.98;9.18;;;20.40;99.90;;;;;;5051710;28;20480;-76
2021/09/09 07:05:35;;;;;;;10.55;9.45;;;20.50;99.90;;;;;;5052524;28;20021;-75
2021/09/09 07:08:01;;;;;;;10.57;8.90;;;20.60;99.90;;;;;;5052736;28;20013;-76
2021/09/09 07:10:26;;;;;;;10.80;8.90;;;20.70;99.90;;;;;;5051662;28;20051;-76
2021/09/09 07:12:52;;;;;;;10.23;8.80;;;20.70;99.90;;;;;;5050226;28;20079;-75
2021/09/09 07:15:18;;;;;;;12.20;9.00;;;20.80;99.90;;;;;;5050775;28;20021;-76
2021/09/09 07:17:43;;;;;;;11.10;8.68;;;20.80;99.90;;;;;;5051543;28;20029;-75
2021/09/09 07:20:09;;;;;;;10.73;8.05;;;20.80;99.90;;;;;;5051322;28;20086;-78
2021/09/09 07:22:35;;;;;;;10.48;8.18;;;20.70;99.90;;;;;;5052250;28;20056;-80
2021/09/09 07:25:00;;;;;;;9.43;7.85;;;20.70;99.90;;;;;;5083298;28;20032;-80
2021/09/09 07:27:26;;;;;;;9.20;6.90;;;20.70;99.90;;;;;;5055138;28;20033;-79
2021/09/09 07:29:51;;;;;;;11.15;7.53;;;20.70;99.90;;;;;;5052293;28;20509;-80
2021/09/09 07:32:17;;;;;;;10.13;7.85;;;20.80;99.90;;;;;;5053071;28;20027;-79
2021/09/09 07:34:43;;;;;;;12.43;8.93;;;20.90;99.90;;;;;;5061252;28;20399;-77
2021/09/09 07:37:08;;;;;;;11.23;8.30;;;21.00;99.90;;;;;;5073167;28;20025;-78
2021/09/09 07:39:34;;;;;;;9.77;7.57;;;21.10;99.90;;;;;;5058188;28;20489;-78
2021/09/09 07:41:59;;;;;;;8.55;7.38;;;21.30;99.90;;;;;;5052483;28;20106;-79
2021/09/09 07:44:25;;;;;;;9.93;8.00;;;21.30;99.90;;;;;;5051523;28;20029;-79
2021/09/09 07:46:50;;;;;;;10.00;8.15;;;21.50;99.90;;;;;;5053646;28;20056;-79
2021/09/09 07:49:16;;;;;;;10.07;7.45;;;21.50;99.90;;;;;;5051509;28;20021;-78
2021/09/09 07:51:43;;;;;;;11.80;7.28;;;21.50;99.90;;;;;;5051849;28;20025;-78
2021/09/09 07:54:09;;;;;;;9.15;8.25;;;21.70;99.90;;;;;;5051369;28;20021;-77
2021/09/09 07:56:35;;;;;;;8.35;7.45;;;21.90;99.90;;;;;;5052721;28;20020;-78
2021/09/09 07:59:01;;;;;;;16.15;7.72;;;21.90;99.90;;;;;;5052749;28;20031;-78
2021/09/09 08:01:27;;;;;;;9.98;7.65;;;22.00;99.90;;;;;;5052378;28;20129;-79
2021/09/09 08:03:53;;;;;;;13.57;7.90;;;22.20;99.90;;;;;;5051163;28;20116;-78
2021/09/09 08:06:19;;;;;;;8.35;7.47;;;22.30;99.90;;;;;;5050904;28;20455;-79
2021/09/09 08:08:44;;;;;;;8.65;7.60;;;22.60;99.90;;;;;;5050919;28;20044;-77
2021/09/09 08:11:10;;;;;;;12.38;7.05;;;23.00;99.90;;;;;;5052107;28;20029;-78
2021/09/09 08:13:36;;;;;;;8.40;7.35;;;23.20;99.90;;;;;;5050973;28;20033;-78
2021/09/09 08:16:02;;;;;;;9.13;8.07;;;23.20;99.90;;;;;;5051138;28;20117;-79
2021/09/09 08:18:27;;;;;;;10.77;7.65;;;23.30;99.90;;;;;;5051007;28;20028;-77
2021/09/09 08:20:56;;;;;;;20.27;8.18;;;23.20;99.90;;;;;;5050837;28;20108;-77
2021/09/09 08:23:23;;;;;;;8.93;6.90;;;23.40;99.90;;;;;;5050941;28;20067;-78
2021/09/09 08:25:49;;;;;;;7.65;6.65;;;23.70;99.90;;;;;;5052621;28;20021;-77
2021/09/09 08:28:17;;;;;;;8.45;6.50;;;23.90;99.90;;;;;;5051451;28;20461;-78
2021/09/09 08:30:43;;;;;;;8.70;7.30;;;24.00;99.90;;;;;;5052244;28;20037;-79
2021/09/09 08:33:09;;;;;;;10.13;6.53;;;23.70;99.90;;;;;;5061034;28;20048;-77
2021/09/09 08:35:34;;;;;;;7.78;6.03;;;23.70;99.90;;;;;;5070902;28;20484;-78
2021/09/09 08:38:00;;;;;;;8.52;6.55;;;23.80;99.90;;;;;;5071117;28;20032;-78
2021/09/09 08:40:26;;;;;;;8.75;6.43;;;23.80;99.90;;;;;;5071808;28;20545;-78
2021/09/09 08:42:55;;;;;;;12.02;6.70;;;24.10;99.90;;;;;;5053671;28;20025;-78
2021/09/09 08:45:20;;;;;;;13.68;6.95;;;24.10;99.90;;;;;;5052487;28;20025;-77
2021/09/09 08:47:47;;;;;;;16.15;8.45;;;24.20;99.90;;;;;;5052589;28;20071;-78
2021/09/09 08:50:12;;;;;;;13.55;7.50;;;23.60;99.90;;;;;;5051016;28;20114;-78
2021/09/09 08:52:39;;;;;;;11.85;7.00;;;23.60;99.90;;;;;;5054079;28;20055;-77
2021/09/09 08:55:06;;;;;;;10.38;6.70;;;23.60;99.90;;;;;;5064826;28;20025;-78
2021/09/09 08:57:32;;;;;;;8.40;6.30;;;23.40;99.90;;;;;;5064144;28;20060;-78
2021/09/09 09:00:02;;;;;;;9.57;6.55;;;23.50;99.90;;;;;;5061701;28;20025;-78
2021/09/09 09:02:28;;;;;;;17.80;6.13;;;23.60;99.90;;;;;;5061944;28;20091;-78
2021/09/09 09:05:07;;;;;;;7.38;6.68;;;23.90;99.90;;;;;;5062494;28;20025;-77
2021/09/09 09:07:35;;;;;;;7.05;5.50;;;24.20;99.90;;;;;;5064081;28;20021;-77
2021/09/09 09:10:03;;;;;;;8.38;6.05;;;24.20;99.90;;;;;;5059616;28;20025;-78
2021/09/09 09:12:47;;;;;;;5.97;5.10;;;24.20;99.90;;;;;;5063201;28;20021;-78
2021/09/09 09:15:15;;;;;;;9.02;4.97;;;24.40;99.90;;;;;;5060717;28;20034;-78
2021/09/09 09:18:00;;;;;;;4.93;4.53;;;24.50;99.90;;;;;;5046051;28;20449;-79
2021/09/09 09:20:36;;;;;;;5.68;4.75;;;24.60;99.90;;;;;;5061107;28;20075;-78
2021/09/09 09:23:12;;;;;;;6.50;5.15;;;24.70;99.90;;;;;;5062592;28;20029;-78
2021/09/09 09:25:44;;;;;;;5.80;4.93;;;24.90;99.90;;;;;;5063031;28;20458;-78
2021/09/09 09:28:11;;;;;;;8.30;4.93;;;25.00;99.90;;;;;;5062933;28;20087;-79
2021/09/09 09:30:36;;;;;;;6.85;4.65;;;25.00;99.90;;;;;;5062565;28;20060;-79
2021/09/09 09:33:02;;;;;;;5.20;4.25;;;25.20;99.90;;;;;;5066525;28;20024;-78
2021/09/09 09:35:27;;;;;;;5.70;4.57;;;25.20;99.90;;;;;;5068644;28;21671;-77
2021/09/09 09:38:07;;;;;;;5.78;4.57;;;25.30;99.90;;;;;;5068031;28;20108;-79
2021/09/09 09:40:43;;;;;;;5.85;5.13;;;25.50;99.90;;;;;;5069695;28;20028;-79
2021/09/09 09:43:11;;;;;;;5.72;4.40;;;25.60;99.90;;;;;;5069309;28;20017;-78
2021/09/09 09:45:47;;;;;;;8.07;4.13;;;25.70;99.90;;;;;;5075659;28;20068;-78
2021/09/09 09:48:26;;;;;;;6.10;4.53;;;25.70;99.90;;;;;;5077975;28;20013;-78
2021/09/09 09:50:52;;;;;;;5.00;4.50;;;25.50;99.90;;;;;;5058462;28;20441;-78
2021/09/09 09:53:18;;;;;;;6.40;4.55;;;25.30;99.90;;;;;;5059473;28;20473;-79
2021/09/09 09:55:46;;;;;;;7.57;4.85;;;25.40;99.90;;;;;;5053849;28;20078;-76
2021/09/09 09:58:13;;;;;;;8.57;5.03;;;25.60;99.90;;;;;;5054418;28;20029;-76
2021/09/09 10:00:39;;;;;;;6.57;5.07;;;25.70;99.90;;;;;;5054245;28;20025;-77
2021/09/09 10:03:05;;;;;;;4.65;4.25;;;25.90;99.90;;;;;;5054961;28;20063;-80
2021/09/09 10:05:35;;;;;;;4.93;4.30;;;25.90;99.90;;;;;;5059438;28;20032;-80
2021/09/09 10:08:01;;;;;;;5.38;4.25;;;25.90;99.90;;;;;;5074510;28;20017;-80
2021/09/09 10:10:27;;;;;;;5.00;4.53;;;25.70;99.90;;;;;;5096850;28;20037;-81
2021/09/09 10:12:53;;;;;;;7.80;4.47;;;25.60;99.90;;;;;;5078010;28;20048;-80
2021/09/09 10:15:22;;;;;;;5.88;4.18;;;25.70;99.90;;;;;;5063592;28;20045;-80
2021/09/09 10:17:50;;;;;;;4.72;4.20;;;25.80;99.90;;;;;;5061448;28;20028;-79
2021/09/09 10:20:31;;;;;;;5.28;4.40;;;25.90;99.90;;;;;;5061933;28;20005;-77
2021/09/09 10:23:04;;;;;;;5.07;4.53;;;26.30;99.90;;;;;;5060410;28;20021;-79
2021/09/09 10:26:01;;;;;;;6.32;4.30;;;26.50;99.90;;;;;;5059551;28;20025;-80
2021/09/09 10:28:55;;;;;;;4.95;3.85;;;26.60;99.90;;;;;;5051302;28;20045;-79
2021/09/09 10:31:21;;;;;;;4.40;4.00;;;26.80;99.40;;;;;;5057389;28;20024;-80
2021/09/09 10:33:50;;;;;;;5.78;4.50;;;27.00;99.00;;;;;;5057548;28;20472;-79
2021/09/09 10:36:45;;;;;;;4.00;3.60;;;27.00;98.60;;;;;;5055757;28;20025;-78
2021/09/09 10:39:19;;;;;;;5.95;4.18;;;27.20;99.20;;;;;;5062119;28;20021;-79
2021/09/09 10:41:45;;;;;;;6.82;3.97;;;27.20;98.30;;;;;;5061418;28;20021;-80
2021/09/09 10:44:11;;;;;;;4.68;4.28;;;27.00;98.10;;;;;;5058727;28;20090;-77
2021/09/09 10:46:40;;;;;;;4.63;3.60;;;26.80;97.60;;;;;;5056445;28;20497;-80
2021/09/09 10:49:08;;;;;;;4.43;3.65;;;26.50;98.30;;;;;;5063106;28;20365;-79
2021/09/09 10:51:34;;;;;;;4.47;4.07;;;26.40;98.50;;;;;;5067489;28;20048;-82
2021/09/09 10:54:01;;;;;;;4.13;3.30;;;26.50;99.10;;;;;;5058091;28;20396;-79
2021/09/09 10:56:32;;;;;;;3.88;3.45;;;26.60;99.20;;;;;;5057080;28;20083;-80
2021/09/09 10:59:13;;;;;;;3.80;3.50;;;26.90;98.40;;;;;;5054971;28;20028;-80
2021/09/09 11:01:45;;;;;;;3.13;2.75;;;27.00;98.30;;;;;;5056117;28;20029;-83
2021/09/09 11:04:34;;;;;;;4.30;3.90;;;27.00;98.50;;;;;;5060612;28;20044;-81
2021/09/09 11:07:00;;;;;;;5.70;3.67;;;26.70;98.50;;;;;;5064795;28;20021;-82
2021/09/09 11:09:27;;;;;;;4.07;3.67;;;26.80;98.90;;;;;;5060676;28;20029;-82
2021/09/09 11:12:10;;;;;;;3.58;3.28;;;26.80;98.40;;;;;;5062401;28;20029;-82
2021/09/09 11:14:36;;;;;;;4.05;3.22;;;27.00;98.20;;;;;;5062875;28;20029;-80
2021/09/09 11:17:01;;;;;;;11.13;4.07;;;27.30;98.30;;;;;;5060945;28;20044;-81
2021/09/09 11:19:27;;;;;;;5.60;3.05;;;27.40;97.70;;;;;;5064119;28;20021;-82
2021/09/09 11:21:58;;;;;;;7.15;3.58;;;27.50;97.50;;;;;;5064674;28;20031;-81
2021/09/09 11:24:23;;;;;;;4.32;3.40;;;27.60;97.30;;;;;;5070916;28;20025;-81
2021/09/09 11:26:50;;;;;;;3.88;3.53;;;27.70;97.40;;;;;;5068880;28;20037;-82
2021/09/09 11:29:21;;;;;;;3.88;3.50;;;27.80;97.30;;;;;;5066612;28;20018;-82
2021/09/09 11:31:51;;;;;;;;;;;27.90;97.30;;;;;;5063207;28;20028;-82
2021/09/09 11:34:27;;;;;;;5.97;4.07;;;28.00;96.90;;;;;;5064635;28;19905;-81
2021/09/09 11:36:53;;;;;;;4.13;3.58;;;28.10;96.60;;;;;;5062408;28;20025;-81
2021/09/09 11:39:24;;;;;;;3.78;3.22;;;28.30;96.40;;;;;;5061836;28;20021;-82
2021/09/09 11:41:54;;;;;;;3.40;3.00;;;28.60;96.10;;;;;;5061795;28;20023;-82
2021/09/09 11:44:32;;;;;;;3.40;3.10;;;28.40;95.90;;;;;;5069806;28;20052;-79
2021/09/09 11:46:59;;;;;;;5.47;3.83;;;28.20;96.40;;;;;;5056165;28;20556;-78
2021/09/09 11:49:27;;;;;;;3.88;3.38;;;28.60;96.00;;;;;;5057425;28;20554;-80
2021/09/09 11:51:58;;;;;;;4.65;3.55;;;28.70;95.40;;;;;;5055942;28;20027;-80
2021/09/09 11:54:30;;;;;;;3.80;3.22;;;28.80;95.60;;;;;;5057598;28;20049;-80
2021/09/09 11:57:17;;;;;;;3.28;2.97;;;28.90;95.40;;;;;;5056446;28;20029;-81
2021/09/09 11:59:50;;;;;;;4.10;3.33;;;28.70;95.00;;;;;;5058612;28;20029;-81
2021/09/09 12:02:22;;;;;;;6.05;3.17;;;28.80;95.00;;;;;;5062750;28;20025;-79
2021/09/09 12:04:49;;;;;;;5.72;3.00;;;28.50;95.00;;;;;;5069961;28;20021;-78
2021/09/09 12:07:20;;;;;;;6.55;4.18;;;28.70;95.30;;;;;;5072854;28;20076;-79
2021/09/09 12:09:58;;;;;;;4.53;4.00;;;28.80;94.60;;;;;;5071648;28;20021;-79
2021/09/09 12:12:28;;;;;;;3.30;3.00;;;28.80;94.10;;;;;;5072822;28;20027;-79
2021/09/09 12:15:01;;;;;;;4.35;3.05;;;28.60;93.70;;;;;;5073463;28;20043;-78
2021/09/09 12:17:27;;;;;;;6.03;3.25;;;28.40;93.90;;;;;;5072045;28;20029;-77
2021/09/09 12:20:06;;;;;;;6.13;3.10;;;28.70;94.40;;;;;;5073537;28;20025;-79
2021/09/09 12:23:00;;;;;;;3.38;3.10;;;28.80;94.20;;;;;;5077000;28;20116;-78
2021/09/09 12:25:28;;;;;;;3.60;3.25;;;28.80;94.10;;;;;;5078319;28;20033;-77
2021/09/09 12:27:54;;;;;;;6.68;3.33;;;28.70;93.50;;;;;;5091626;28;20084;-79
2021/09/09 12:30:37;;;;;;;3.38;2.75;;;28.60;93.50;;;;;;5087913;28;20090;-79
2021/09/09 12:33:18;;;;;;;6.60;3.65;;;28.50;93.20;;;;;;5081022;28;20073;-79
2021/09/09 12:36:04;;;;;;;5.40;4.00;;;28.80;92.60;;;;;;5080700;28;20017;-81
2021/09/09 12:38:43;;;;;;;4.25;3.38;;;28.90;92.60;;;;;;5079092;28;20055;-78